Time;durP1;ratioP1;P1;durP2;ratioP2;P2;SDS_P1;SDS_P2;PMS_P1;PMS_P2;Temp;Humidity;BMP_temperature;BMP_pressure;BME280_temperature;BME280_humidity;BME280_pressure;Samples;Min_cycle;Max_cycle;Signal;HPM_P1;HPM_P2
2022/12/15 00:40:47;;;;;;;;;73.00;57.00;;;;;4.12;53.32;97422.81;6286210;27;96677;-62
2022/12/15 00:43:50;;;;;;;;;73.80;60.80;;;;;4.11;53.10;97423.84;6286067;27;96515;-63
2022/12/15 00:46:56;;;;;;;;;66.60;52.20;;;;;4.13;53.17;97443.13;6284560;27;96651;-61
2022/12/15 01:20:17;;;;;;;;;64.60;50.60;;;;;3.99;54.33;97460.25;6285567;27;96819;-63
2022/12/15 01:23:22;;;;;;;;;64.00;50.00;;;;;4.00;54.35;97475.22;6285824;27;97132;-61
2022/12/15 01:26:26;;;;;;;;;68.00;52.00;;;;;4.05;54.34;97478.88;6295529;27;96403;-62
2022/12/15 01:29:29;;;;;;;;;66.00;52.00;;;;;4.02;54.61;97487.28;6291541;27;96929;-63
2022/12/15 01:32:33;;;;;;;;;70.00;55.40;;;;;3.96;54.65;97480.13;6289700;27;96596;-61
2022/12/15 01:35:36;;;;;;;;;70.00;53.20;;;;;3.95;54.66;97477.69;6289452;27;96415;-66
2022/12/15 01:38:41;;;;;;;;;70.80;54.60;;;;;3.93;54.97;97491.25;6288299;27;97269;-63
2022/12/15 01:41:43;;;;;;;;;71.00;55.75;;;;;3.95;54.88;97491.84;6279149;27;96708;-63
2022/12/15 01:44:50;;;;;;;;;73.40;59.20;;;;;3.91;54.84;97485.28;6271597;27;96597;-63
2022/12/15 01:47:57;;;;;;;;;74.00;60.40;;;;;3.97;54.71;97491.63;6269314;27;96398;-62
2022/12/15 01:51:26;;;;;;;;;74.60;64.60;;;;;3.86;54.77;97493.94;6286908;27;96533;-62
2022/12/15 01:54:37;;;;;;;;;77.25;64.25;;;;;3.82;54.74;97499.91;6282396;27;96367;-62
2022/12/15 01:57:41;;;;;;;;;77.20;66.00;;;;;3.70;55.19;97497.09;6288175;27;97555;-62
2022/12/15 02:00:44;;;;;;;;;76.20;64.80;;;;;3.70;55.38;97509.59;6288085;27;97356;-62
2022/12/15 02:03:48;;;;;;;;;78.80;67.60;;;;;3.66;55.63;97511.06;6285312;27;96702;-62
2022/12/15 02:06:52;;;;;;;;;83.00;69.25;;;;;3.59;55.48;97513.75;6284419;27;96706;-63
2022/12/15 02:10:01;;;;;;;;;78.00;63.00;;;;;3.59;56.10;97513.75;6284356;27;96458;-62
2022/12/15 02:13:16;;;;;;;;;78.60;68.60;;;;;3.56;55.95;97522.16;6286920;27;96971;-61
2022/12/15 02:16:29;;;;;;;;;78.00;67.00;;;;;3.60;55.70;97512.72;6288653;27;96278;-62
2022/12/15 02:20:19;;;;;;;;;76.00;66.50;;;;;3.63;56.11;97514.13;6289545;27;96432;-62
2022/12/15 02:23:59;;;;;;;;;76.50;66.75;;;;;3.71;55.85;97525.41;6192661;27;96510;-63
2022/12/15 02:27:34;;;;;;;;;78.50;67.00;;;;;3.66;55.73;97525.22;6285541;27;96530;-62
2022/12/15 02:31:48;;;;;;;;;76.00;65.40;;;;;3.72;55.47;97532.34;6287724;27;96607;-62
2022/12/15 02:34:33;;;;;;;;;78.25;65.25;;;;;3.72;55.66;97536.84;6278581;27;96862;-62
2022/12/15 02:37:39;;;;;;;;;76.60;63.60;;;;;3.78;55.45;97544.00;6286246;27;96463;-62
2022/12/15 02:40:44;;;;;;;;;75.00;63.60;;;;;3.82;55.58;97545.22;6287684;27;96644;-63
2022/12/15 02:43:48;;;;;;;;;76.60;63.00;;;;;3.88;55.50;97541.72;6277023;27;96309;-63
2022/12/15 02:47:08;;;;;;;;;73.00;59.00;;;;;3.81;55.51;97547.06;6282709;27;96975;-64
2022/12/15 02:50:29;;;;;;;;;78.00;66.00;;;;;3.91;55.81;97562.59;6288055;27;96866;-62
2022/12/15 02:53:47;;;;;;;;;74.00;61.00;;;;;3.87;55.51;97551.56;6288220;27;96173;-62
2022/12/15 02:57:02;;;;;;;;;78.25;63.50;;;;;3.92;55.66;97554.41;6286752;27;96310;-63
2022/12/15 03:00:09;;;;;;;;;74.00;60.00;;;;;3.91;55.52;97546.59;6304728;27;96283;-62
2022/12/15 03:03:19;;;;;;;;;74.80;59.00;;;;;3.95;55.41;97552.34;6288283;27;96902;-62
2022/12/15 03:06:25;;;;;;;;;71.60;58.60;;;;;4.04;55.70;97559.91;6283331;27;97150;-62
2022/12/15 03:09:28;;;;;;;;;69.40;53.80;;;;;4.08;55.46;97555.78;6279317;27;96559;-62
2022/12/15 03:12:31;;;;;;;;;70.60;56.20;;;;;4.07;55.52;97554.13;6286972;27;96185;-62
2022/12/15 03:15:35;;;;;;;;;69.00;53.20;;;;;4.15;55.57;97561.91;6288439;27;96334;-63
2022/12/15 03:18:40;;;;;;;;;69.00;54.25;;;;;4.13;55.45;97566.63;6286788;27;96410;-62
2022/12/15 03:21:43;;;;;;;;;68.40;53.00;;;;;4.13;55.63;97571.94;6288075;27;96885;-61
2022/12/15 03:24:47;;;;;;;;;70.00;54.20;;;;;4.12;55.57;97570.31;6285862;27;96281;-64
2022/12/15 03:27:50;;;;;;;;;67.80;53.00;;;;;4.12;55.92;97572.16;6301840;27;97613;-61
2022/12/15 03:30:55;;;;;;;;;67.00;52.00;;;;;4.13;55.88;97571.13;6286102;27;96720;-62
2022/12/15 03:34:00;;;;;;;;;69.00;52.00;;;;;4.14;55.69;97573.59;6288276;27;96333;-61
2022/12/15 03:37:04;;;;;;;;;66.00;51.00;;;;;4.06;55.96;97555.16;6288224;27;96347;-62
2022/12/15 03:40:09;;;;;;;;;65.60;51.80;;;;;4.13;56.14;97563.13;6269933;27;96882;-62
2022/12/15 03:43:12;;;;;;;;;64.20;50.20;;;;;4.30;55.87;97594.41;6281811;27;96446;-63
2022/12/15 03:46:15;;;;;;;;;65.00;51.00;;;;;4.34;55.95;97598.31;6287570;27;96350;-62
2022/12/15 03:49:20;;;;;;;;;56.75;45.75;;;;;4.38;55.93;97605.88;6285218;27;96428;-62
2022/12/15 03:52:24;;;;;;;;;60.00;46.00;;;;;4.42;56.06;97607.09;6287677;27;96628;-62
2022/12/15 03:55:28;;;;;;;;;63.40;49.00;;;;;4.45;55.75;97609.34;6287123;27;96481;-63
2022/12/15 03:58:31;;;;;;;;;58.75;46.50;;;;;4.47;55.75;97608.09;6287520;27;96325;-63
2022/12/15 04:01:36;;;;;;;;;62.20;48.00;;;;;4.42;55.88;97607.09;6277338;27;96420;-63
2022/12/15 04:04:41;;;;;;;;;57.40;45.40;;;;;4.39;55.73;97594.19;6286688;27;96792;-62
2022/12/15 04:07:45;;;;;;;;;62.60;48.00;;;;;4.55;55.82;97621.16;6287243;27;96506;-62
2022/12/15 04:10:49;;;;;;;;;61.80;47.00;;;;;4.56;55.58;97619.31;6286443;27;96438;-64
2022/12/15 04:13:53;;;;;;;;;63.00;48.00;;;;;4.58;55.78;97625.28;6287379;27;96498;-62
2022/12/15 04:16:57;;;;;;;;;64.33;48.33;;;;;4.53;55.88;97630.44;6280660;27;98457;-62
2022/12/15 04:20:11;;;;;;;;;60.25;47.00;;;;;4.46;56.26;97632.31;6287095;27;96860;-62
2022/12/15 04:23:14;;;;;;;;;58.00;46.00;;;;;4.50;56.33;97642.34;6279482;27;96706;-62
2022/12/15 05:33:26;;;;;;;;;57.40;45.20;;;;;4.67;57.68;97714.75;6284271;27;96591;-62
2022/12/15 05:36:30;;;;;;;;;59.80;46.40;;;;;4.62;58.04;97727.91;6283567;27;96957;-62
2022/12/15 05:39:35;;;;;;;;;59.75;47.00;;;;;4.62;58.37;97735.91;6288848;27;96264;-62
2022/12/15 05:42:40;;;;;;;;;58.60;46.00;;;;;4.58;58.28;97742.72;6287771;27;97120;-63
2022/12/15 05:45:44;;;;;;;;;62.60;49.00;;;;;4.62;58.40;97752.75;6292536;27;96545;-63
2022/12/15 05:48:47;;;;;;;;;62.60;48.60;;;;;4.64;58.25;97756.00;6285138;27;97004;-64
2022/12/15 05:51:50;;;;;;;;;63.00;49.25;;;;;4.67;58.14;97752.94;6283162;27;96584;-62
2022/12/15 05:54:54;;;;;;;;;62.00;48.50;;;;;4.66;58.36;97763.81;6290150;27;96876;-63
2022/12/15 05:57:58;;;;;;;;;63.00;50.25;;;;;4.64;58.46;97774.69;6276738;27;96882;-63
2022/12/15 06:01:03;;;;;;;;;65.25;51.00;;;;;4.64;58.67;97772.03;6283710;27;96494;-62
2022/12/15 06:04:07;;;;;;;;;63.00;48.20;;;;;4.64;58.61;97765.91;6286473;27;96514;-62
2022/12/15 06:07:10;;;;;;;;;63.00;49.40;;;;;4.62;58.91;97787.47;6288311;27;96677;-63
2022/12/15 06:10:14;;;;;;;;;64.00;51.00;;;;;4.62;59.00;97789.31;6278955;27;97047;-62
2022/12/15 06:13:19;;;;;;;;;66.60;50.40;;;;;4.58;59.41;97791.59;6285803;27;96953;-63
2022/12/15 06:16:24;;;;;;;;;60.40;48.20;;;;;4.54;59.40;97797.56;6285075;27;97116;-62
2022/12/15 06:19:27;;;;;;;;;62.80;48.60;;;;;4.62;59.38;97794.63;6278113;27;97070;-61
2022/12/15 06:22:31;;;;;;;;;62.60;48.20;;;;;4.73;59.06;97815.34;6284021;27;96787;-61
2022/12/15 06:25:34;;;;;;;;;62.80;49.40;;;;;4.67;59.31;97811.66;6284595;27;96470;-62
2022/12/15 06:28:39;;;;;;;;;63.00;48.00;;;;;4.65;59.39;97823.56;6257871;27;96853;-62
2022/12/15 06:31:43;;;;;;;;;63.25;49.00;;;;;4.61;59.89;97833.03;6274815;27;97910;-64
2022/12/15 06:34:47;;;;;;;;;62.00;50.00;;;;;4.55;60.13;97840.03;6272484;27;96578;-62
2022/12/15 06:37:50;;;;;;;;;63.00;50.00;;;;;4.66;59.97;97846.56;6281780;27;97920;-63
2022/12/15 06:40:55;;;;;;;;;64.00;50.00;;;;;4.57;60.17;97834.50;6280600;27;96644;-62
2022/12/15 06:44:01;;;;;;;;;62.00;48.20;;;;;4.67;59.68;97850.91;6277581;27;97208;-61
2022/12/15 06:47:06;;;;;;;;;64.60;49.20;;;;;4.79;59.47;97855.34;6275270;27;97800;-63
2022/12/15 06:50:10;;;;;;;;;62.20;49.80;;;;;4.87;59.31;97859.66;6286442;27;96483;-63
2022/12/15 06:53:14;;;;;;;;;63.40;49.60;;;;;4.88;59.11;97857.81;6274772;27;98119;-63
2022/12/15 06:56:19;;;;;;;;;64.20;48.60;;;;;5.00;58.68;97875.63;6278792;27;97476;-62
2022/12/15 06:59:32;;;;;;;;;63.20;50.00;;;;;5.07;58.60;97889.81;6275364;27;97292;-62
2022/12/15 07:02:35;;;;;;;;;59.50;47.00;;;;;5.04;58.46;97889.38;6276746;27;96601;-64
2022/12/15 07:05:39;;;;;;;;;62.20;47.60;;;;;5.01;58.41;97895.16;6279881;27;96592;-62
2022/12/15 07:08:43;;;;;;;;;60.67;48.00;;;;;4.91;58.70;97897.44;6281018;27;97501;-62
2022/12/15 07:11:49;;;;;;;;;63.00;48.00;;;;;4.94;58.71;97900.50;6284703;27;96752;-63
2022/12/15 07:14:53;;;;;;;;;62.00;48.00;;;;;4.96;58.62;97894.97;6274897;27;96609;-62
2022/12/15 07:17:57;;;;;;;;;62.60;48.80;;;;;5.01;58.77;97911.19;6279564;27;96468;-62
2022/12/15 07:21:03;;;;;;;;;61.20;48.00;;;;;5.02;58.72;97904.81;6287034;27;96484;-63
2022/12/15 07:24:07;;;;;;;;;60.20;47.20;;;;;5.01;58.72;97908.50;6285611;27;96919;-62
2022/12/15 07:27:10;;;;;;;;;62.00;49.00;;;;;4.99;58.50;97911.38;6286565;27;96560;-65
2022/12/15 07:30:17;;;;;;;;;60.00;46.50;;;;;5.01;58.53;97914.69;6279677;27;97266;-62
2022/12/15 07:33:20;;;;;;;;;62.00;49.00;;;;;5.09;58.57;97921.63;6285417;27;96947;-61
2022/12/15 07:36:24;;;;;;;;;62.67;46.00;;;;;5.12;58.23;97932.75;6279482;27;97481;-63
2022/12/15 07:39:27;;;;;;;;;60.80;47.00;;;;;5.12;58.50;97932.75;6277136;27;96572;-61
2022/12/15 07:42:30;;;;;;;;;58.00;46.80;;;;;5.14;58.12;97946.69;6277158;27;96660;-64
2022/12/15 07:45:35;;;;;;;;;58.00;45.60;;;;;5.24;57.94;97949.75;6291495;27;97054;-63
2022/12/15 07:48:38;;;;;;;;;58.75;47.00;;;;;5.29;58.04;97948.28;6286179;27;96532;-63
2022/12/15 07:51:42;;;;;;;;;62.80;48.40;;;;;5.29;57.73;97959.78;6286284;27;96294;-63
2022/12/15 07:54:45;;;;;;;;;62.40;48.80;;;;;5.29;57.84;97965.16;6279246;27;98288;-63
2022/12/15 07:57:49;;;;;;;;;60.20;47.00;;;;;5.32;57.30;97979.94;6279222;27;96985;-63
2022/12/15 08:00:54;;;;;;;;;60.20;46.20;;;;;5.38;57.52;97989.78;6285037;27;98426;-63
2022/12/15 08:03:58;;;;;;;;;63.20;48.40;;;;;5.47;57.09;97980.53;6257505;27;97785;-63
2022/12/15 08:07:01;;;;;;;;;61.80;47.00;;;;;5.49;56.82;97983.78;6278122;27;96878;-62
2022/12/15 08:10:06;;;;;;;;;58.50;46.75;;;;;5.52;56.72;98002.09;6286581;27;96945;-63
2022/12/15 08:13:09;;;;;;;;;57.00;46.00;;;;;5.45;56.40;97999.44;6287485;27;96313;-62
2022/12/15 08:16:14;;;;;;;;;61.40;48.00;;;;;5.55;56.31;98015.03;6285440;27;96611;-63
2022/12/15 08:19:17;;;;;;;;;61.00;47.00;;;;;5.49;56.29;98011.34;6286251;27;96350;-63
2022/12/15 08:22:21;;;;;;;;;63.00;48.00;;;;;5.43;56.03;97996.13;6287087;27;96258;-63
2022/12/15 08:25:27;;;;;;;;;60.60;46.00;;;;;5.61;55.74;98017.69;6277527;27;96635;-62
2022/12/15 08:28:31;;;;;;;;;57.80;46.20;;;;;5.62;55.62;98029.19;6283035;27;97795;-63
2022/12/15 08:31:36;;;;;;;;;58.60;47.20;;;;;5.58;55.35;98026.13;6302105;27;96663;-63
2022/12/15 08:34:41;;;;;;;;;57.40;45.00;;;;;5.70;54.57;98049.53;6279144;27;96762;-65
2022/12/15 08:37:44;;;;;;;;;54.20;44.00;;;;;5.72;53.88;98042.94;6288317;27;96605;-62
2022/12/15 08:40:47;;;;;;;;;56.00;45.50;;;;;5.74;53.75;98064.13;6286400;27;96069;-65
2022/12/15 08:43:51;;;;;;;;;57.00;44.00;;;;;5.71;54.40;98070.72;6290973;27;97031;-63
2022/12/15 08:46:56;;;;;;;;;56.40;44.80;;;;;5.76;53.83;98067.41;6285910;27;97258;-63
2022/12/15 08:49:59;;;;;;;;;52.60;43.00;;;;;5.55;53.84;98060.47;6286497;27;96940;-63
2022/12/15 08:53:03;;;;;;;;;55.00;44.00;;;;;5.64;53.57;98080.59;6288110;27;96419;-62
2022/12/15 08:56:27;;;;;;;;;55.00;43.60;;;;;5.66;53.03;98071.34;6282681;27;96615;-64
2022/12/15 08:59:30;;;;;;;;;56.00;44.00;;;;;5.65;53.17;98066.22;6278028;27;96366;-64
2022/12/15 09:02:35;;;;;;;;;56.50;44.00;;;;;5.68;53.16;98077.31;6283401;27;96324;-63
2022/12/15 09:05:39;;;;;;;;;52.80;42.00;;;;;5.58;52.98;98068.88;6285828;27;96377;-63
2022/12/15 09:08:43;;;;;;;;;54.80;43.40;;;;;5.66;53.21;98075.88;6286123;27;96775;-63
2022/12/15 09:11:52;;;;;;;;;55.25;43.00;;;;;5.67;53.27;98075.66;6287001;27;96915;-62
2022/12/15 09:14:55;;;;;;;;;54.25;43.25;;;;;5.73;53.38;98068.66;6286047;27;96284;-64
2022/12/15 09:18:00;;;;;;;;;55.50;44.00;;;;;5.66;52.77;98074.03;6284373;27;97238;-65
2022/12/15 09:21:04;;;;;;;;;54.40;44.00;;;;;5.76;53.04;98083.47;6294778;27;96606;-63
2022/12/15 09:24:14;;;;;;;;;56.00;43.80;;;;;5.75;52.99;98082.63;6284328;27;96731;-63
2022/12/15 09:27:31;;;;;;;;;55.50;43.25;;;;;5.77;53.31;98080.56;6297937;27;96244;-62
2022/12/15 09:30:36;;;;;;;;;57.25;44.25;;;;;5.68;53.37;98073.81;6281744;27;96300;-63
2022/12/15 09:33:43;;;;;;;;;53.00;42.60;;;;;5.67;53.15;98074.81;6281798;27;96221;-63
2022/12/15 09:36:49;;;;;;;;;53.50;42.25;;;;;5.63;53.21;98071.75;6288652;27;97601;-63
2022/12/15 09:39:52;;;;;;;;;55.00;44.00;;;;;5.57;52.52;98077.94;6293648;27;97137;-62
2022/12/15 09:42:57;;;;;;;;;51.80;41.20;;;;;5.45;52.92;98057.41;6282295;27;96519;-64
2022/12/15 09:46:27;;;;;;;;;51.50;40.75;;;;;5.71;52.59;98081.41;6292636;27;96245;-64
2022/12/15 09:49:50;;;;;;;;;56.00;42.00;;;;;5.59;52.51;98075.06;6285812;27;96779;-63
2022/12/15 09:52:58;;;;;;;;;52.20;41.60;;;;;5.62;52.75;98067.44;6291025;27;96263;-63
2022/12/15 09:56:07;;;;;;;;;53.00;44.00;;;;;5.80;52.41;98085.50;6288040;27;96715;-63
2022/12/15 09:59:23;;;;;;;;;53.00;41.75;;;;;5.93;52.14;98088.16;6288527;27;96530;-63
2022/12/15 10:03:00;;;;;;;;;53.00;42.00;;;;;5.88;52.18;98089.81;6285757;27;97207;-62
2022/12/15 10:06:13;;;;;;;;;52.80;41.00;;;;;6.03;52.19;98087.72;6284695;27;96413;-62
2022/12/15 10:09:37;;;;;;;;;56.50;44.00;;;;;6.09;51.91;98090.38;6287711;27;96416;-65
2022/12/15 10:12:42;;;;;;;;;56.50;44.00;;;;;6.00;51.85;98075.59;6300938;27;96126;-62
2022/12/15 10:16:05;;;;;;;;;55.00;44.00;;;;;6.13;51.65;98089.94;6290209;27;96382;-63
2022/12/15 10:19:14;;;;;;;;;53.50;42.25;;;;;6.17;51.49;98086.59;6287463;27;97082;-63
2022/12/15 10:22:23;;;;;;;;;53.80;42.80;;;;;6.23;51.67;98096.47;6284185;27;96296;-62
2022/12/15 10:25:29;;;;;;;;;55.00;44.33;;;;;6.30;51.50;98104.47;6283009;27;96760;-64
2022/12/15 10:28:59;;;;;;;;;56.00;44.00;;;;;6.25;51.21;98102.44;6292069;27;96498;-63
2022/12/15 10:32:06;;;;;;;;;52.25;41.00;;;;;6.29;51.11;98113.53;6305704;27;96723;-63
2022/12/15 10:35:16;;;;;;;;;56.00;44.20;;;;;6.28;51.31;98112.72;6287043;27;96433;-63
2022/12/15 10:38:25;;;;;;;;;57.75;46.50;;;;;6.27;51.27;98102.22;6286919;27;97551;-63
2022/12/15 10:41:32;;;;;;;;;57.00;44.80;;;;;6.27;51.47;98104.88;6286319;27;96804;-63
2022/12/15 10:44:38;;;;;;;;;56.20;44.60;;;;;6.15;51.48;98082.53;6282476;27;96456;-64
2022/12/15 10:47:41;;;;;;;;;58.40;46.00;;;;;6.16;51.59;98076.16;6287027;27;96410;-64
2022/12/15 10:50:45;;;;;;;;;54.67;44.00;;;;;6.38;51.35;98086.31;6285863;27;96378;-64
2022/12/15 10:54:03;;;;;;;;;57.00;44.00;;;;;6.46;50.87;98098.59;6288212;27;97124;-64
2022/12/15 10:57:17;;;;;;;;;59.40;45.40;;;;;6.45;50.90;98092.44;6286198;27;96627;-63
2022/12/15 11:00:28;;;;;;;;;54.20;43.80;;;;;6.54;50.80;98103.72;6277943;27;96796;-63
2022/12/15 11:03:36;;;;;;;;;56.60;44.40;;;;;6.64;50.83;98114.78;6287976;27;97385;-63
2022/12/15 11:06:42;;;;;;;;;55.00;44.00;;;;;6.74;50.42;98125.03;6288757;27;96283;-62
2022/12/15 11:09:49;;;;;;;;;55.00;44.00;;;;;6.78;49.92;98121.72;6286874;27;96818;-63
2022/12/15 11:13:00;;;;;;;;;55.40;44.00;;;;;6.86;50.11;98153.59;6285959;27;96948;-64
2022/12/15 11:16:14;;;;;;;;;54.00;43.00;;;;;6.80;49.46;98133.00;6280366;27;96641;-65
2022/12/15 11:19:30;;;;;;;;;52.75;40.75;;;;;6.73;49.56;98150.19;6287807;27;96375;-63
2022/12/15 11:22:41;;;;;;;;;55.50;43.25;;;;;6.77;49.67;98170.97;6278936;27;96754;-63
2022/12/15 11:26:05;;;;;;;;;51.00;41.00;;;;;6.65;49.59;98167.31;6282090;27;96561;-63
2022/12/15 11:29:40;;;;;;;;;55.00;42.80;;;;;6.62;49.90;98166.91;6280510;27;96589;-63
2022/12/15 11:32:46;;;;;;;;;56.40;45.00;;;;;6.51;50.11;98155.84;6287010;27;97851;-62
2022/12/15 11:36:13;;;;;;;;;54.40;44.20;;;;;6.51;50.61;98149.66;6284905;27;96332;-63
2022/12/15 11:39:32;;;;;;;;;55.80;44.60;;;;;6.52;50.60;98156.66;6283110;27;96983;-64
2022/12/15 11:42:50;;;;;;;;;56.00;43.00;;;;;6.54;50.66;98151.94;6280143;27;96275;-63
2022/12/15 11:46:11;;;;;;;;;54.50;44.00;;;;;6.52;50.62;98138.75;6287660;27;96826;-64
2022/12/15 11:49:40;;;;;;;;;57.00;44.00;;;;;6.57;50.40;98151.50;6286311;27;96360;-63
2022/12/15 11:53:13;;;;;;;;;51.80;42.80;;;;;6.61;50.37;98151.88;6284664;27;96604;-64
2022/12/15 11:56:28;;;;;;;;;54.80;43.00;;;;;6.60;50.17;98151.06;6284375;27;96308;-63
2022/12/15 11:59:59;;;;;;;;;55.00;43.00;;;;;6.59;49.86;98164.69;6278991;27;96327;-62
2022/12/15 12:03:18;;;;;;;;;55.00;43.00;;;;;6.58;49.91;98163.84;6277554;27;96953;-63
2022/12/15 12:06:32;;;;;;;;;55.20;44.40;;;;;6.61;49.69;98166.09;6290873;27;96447;-64
2022/12/15 12:09:40;;;;;;;;;56.50;44.00;;;;;6.62;49.77;98165.06;6283487;27;96434;-63
2022/12/15 12:12:49;;;;;;;;;55.25;44.25;;;;;6.65;49.94;98159.25;6285559;27;96531;-64
2022/12/15 12:16:01;;;;;;;;;57.20;46.80;;;;;6.65;49.85;98167.31;6286295;27;96277;-63
2022/12/15 12:19:06;;;;;;;;;56.20;43.20;;;;;6.65;50.15;98171.84;6286080;27;96446;-64
2022/12/15 12:22:21;;;;;;;;;54.20;44.00;;;;;6.49;49.98;98157.09;6288168;27;96343;-63
2022/12/15 12:25:26;;;;;;;;;57.00;45.50;;;;;6.61;50.31;98174.13;6290359;27;96774;-64
2022/12/15 12:28:39;;;;;;;;;56.80;45.20;;;;;6.59;50.45;98186.09;6301993;27;96796;-63
2022/12/15 12:31:55;;;;;;;;;62.00;47.00;;;;;6.57;50.44;98172.09;6276551;27;97422;-63
2022/12/15 12:35:15;;;;;;;;;56.50;44.25;;;;;6.54;50.35;98189.41;6283187;27;96895;-63
2022/12/15 12:38:45;;;;;;;;;58.20;44.60;;;;;6.49;50.33;98191.91;6282833;27;97514;-63
2022/12/15 12:42:02;;;;;;;;;57.60;45.20;;;;;6.28;50.46;98154.72;6285217;27;96934;-63
2022/12/15 12:45:06;;;;;;;;;59.75;46.00;;;;;6.45;50.48;98174.63;6283340;27;96401;-65
2022/12/15 12:48:18;;;;;;;;;62.00;47.20;;;;;6.37;51.25;98170.31;6285409;27;96704;-64
2022/12/15 12:51:28;;;;;;;;;57.80;45.40;;;;;6.31;51.07;98171.16;6284332;27;96609;-64
2022/12/15 12:54:48;;;;;;;;;60.00;47.50;;;;;6.27;51.30;98182.50;6283910;27;96197;-64
2022/12/15 12:57:53;;;;;;;;;58.60;46.20;;;;;6.25;51.38;98179.25;6283817;27;96512;-64
2022/12/15 13:01:06;;;;;;;;;60.80;48.40;;;;;6.27;51.50;98169.13;6284535;27;96290;-63
2022/12/15 13:04:13;;;;;;;;;62.00;48.75;;;;;6.29;51.36;98177.78;6283594;27;96257;-63
2022/12/15 13:07:29;;;;;;;;;61.40;47.40;;;;;6.21;51.67;98183.34;6281816;27;96720;-63
2022/12/15 13:10:36;;;;;;;;;64.00;49.00;;;;;6.21;51.97;98189.53;6277304;27;97759;-64
2022/12/15 13:13:46;;;;;;;;;59.20;46.00;;;;;6.27;51.60;98188.69;6273838;27;97286;-63
2022/12/15 13:16:57;;;;;;;;;60.60;47.00;;;;;6.35;51.53;98198.34;6284816;27;96397;-63
2022/12/15 13:20:25;;;;;;;;;61.20;48.00;;;;;6.37;51.30;98190.91;6288244;27;99291;-64
2022/12/15 13:23:41;;;;;;;;;61.00;46.00;;;;;6.40;51.15;98204.69;6285849;27;96319;-64
2022/12/15 13:26:45;;;;;;;;;60.00;47.00;;;;;6.35;51.30;98187.66;6317925;27;96471;-63
2022/12/15 13:29:57;;;;;;;;;58.00;47.00;;;;;6.31;51.80;98176.53;6288436;27;96863;-63
2022/12/15 13:33:16;;;;;;;;;61.40;47.80;;;;;6.20;51.60;98158.47;6287423;27;96364;-63
2022/12/15 13:36:45;;;;;;;;;60.40;46.20;;;;;6.28;51.75;98193.00;6288821;27;96818;-63
2022/12/15 13:39:57;;;;;;;;;60.00;47.00;;;;;6.07;52.22;98190.59;6289801;27;96357;-62
2022/12/15 13:43:10;;;;;;;;;55.80;44.00;;;;;5.91;52.54;98183.03;6288969;27;96894;-63
2022/12/15 13:46:18;;;;;;;;;60.00;47.80;;;;;5.64;52.84;98156.28;6288075;27;96434;-64
2022/12/15 13:49:28;;;;;;;;;58.20;46.20;;;;;5.75;53.16;98194.13;6293122;27;96563;-65
2022/12/15 13:52:40;;;;;;;;;60.00;47.25;;;;;5.80;53.24;98205.88;6283163;27;98503;-63
2022/12/15 13:56:17;;;;;;;;;61.50;48.00;;;;;5.71;53.35;98196.41;6285359;27;96822;-63
2022/12/15 13:59:29;;;;;;;;;62.33;46.00;;;;;5.60;53.89;98205.06;6282601;27;97048;-64
2022/12/15 14:02:34;;;;;;;;;57.20;44.00;;;;;5.40;54.68;98206.91;6271871;27;96957;-63
2022/12/15 14:05:41;;;;;;;;;60.60;48.00;;;;;5.35;54.40;98202.16;6288863;27;96968;-62
2022/12/15 14:08:47;;;;;;;;;57.60;45.60;;;;;5.42;54.44;98213.69;6290801;27;97050;-63
2022/12/15 14:12:13;;;;;;;;;61.60;47.00;;;;;5.51;54.43;98220.50;6289044;27;96960;-63
2022/12/15 14:15:19;;;;;;;;;61.00;48.00;;;;;5.60;54.62;98226.44;6291584;27;96570;-64
2022/12/15 14:18:27;;;;;;;;;57.75;46.00;;;;;5.67;54.32;98224.56;6294419;27;96813;-64
2022/12/15 14:21:30;;;;;;;;;61.00;47.50;;;;;5.73;54.44;98245.16;6288942;27;96984;-63
2022/12/15 14:24:44;;;;;;;;;57.00;46.00;;;;;5.81;54.05;98242.28;6288521;27;97152;-63
2022/12/15 14:27:51;;;;;;;;;61.60;45.00;;;;;5.84;53.60;98252.56;6287828;27;96319;-63
2022/12/15 14:30:58;;;;;;;;;61.00;47.20;;;;;5.88;53.52;98261.84;6285939;27;97233;-63
2022/12/15 14:34:06;;;;;;;;;60.60;46.00;;;;;5.94;53.53;98266.38;6285331;27;96425;-64
2022/12/15 14:37:17;;;;;;;;;60.80;46.00;;;;;5.94;53.43;98273.56;6289204;27;96781;-64
2022/12/15 14:40:24;;;;;;;;;61.40;46.00;;;;;5.96;53.46;98277.66;6289096;27;96352;-64
2022/12/15 14:43:38;;;;;;;;;60.00;47.00;;;;;6.05;53.31;98294.34;6271270;27;96614;-64
2022/12/15 14:46:46;;;;;;;;;61.00;47.50;;;;;6.06;52.95;98288.78;6288251;27;96399;-63
2022/12/15 14:49:51;;;;;;;;;62.00;48.00;;;;;6.08;52.39;98294.75;6288881;27;96767;-65
2022/12/15 14:53:00;;;;;;;;;61.00;47.40;;;;;6.06;52.34;98288.78;6288616;27;96587;-64
2022/12/15 14:56:22;;;;;;;;;59.60;46.00;;;;;5.94;52.67;98295.81;6288978;27;96472;-64
2022/12/15 14:59:34;;;;;;;;;61.60;47.40;;;;;5.77;52.88;98288.34;6286648;27;96731;-64
2022/12/15 15:02:38;;;;;;;;;60.60;47.60;;;;;5.83;53.30;98292.88;6290136;27;96293;-63
2022/12/15 15:05:43;;;;;;;;;56.60;45.00;;;;;5.88;53.64;98290.44;6287885;27;96481;-63
2022/12/15 15:08:49;;;;;;;;;62.50;48.75;;;;;5.79;53.73;98279.09;6304947;27;96512;-64
2022/12/15 15:11:59;;;;;;;;;60.00;46.25;;;;;5.96;53.26;98291.03;6289895;27;96860;-63
2022/12/15 15:15:07;;;;;;;;;56.75;44.75;;;;;5.98;53.21;98289.00;6289739;27;96243;-63
2022/12/15 15:18:16;;;;;;;;;63.00;47.00;;;;;5.99;53.43;98284.47;6290209;27;96222;-63
2022/12/15 15:21:23;;;;;;;;;62.00;48.00;;;;;6.04;53.32;98293.53;6288606;27;96031;-63
2022/12/15 15:24:32;;;;;;;;;59.60;46.20;;;;;6.06;53.53;98296.81;6290131;27;96268;-64
2022/12/15 15:27:39;;;;;;;;;59.80;47.80;;;;;6.07;53.18;98287.75;6287107;27;97734;-64
2022/12/15 15:30:45;;;;;;;;;60.20;47.60;;;;;6.08;52.93;98291.25;6283654;27;97039;-63
2022/12/15 15:33:51;;;;;;;;;64.60;48.40;;;;;6.09;53.29;98288.38;6286892;27;96478;-64
2022/12/15 15:36:55;;;;;;;;;62.20;47.00;;;;;6.10;52.99;98302.59;6288113;27;96433;-63
2022/12/15 15:39:58;;;;;;;;;60.80;46.00;;;;;6.09;52.95;98308.97;6289600;27;96373;-63
2022/12/15 15:43:10;;;;;;;;;57.00;45.00;;;;;6.03;52.68;98304.44;6273838;27;96287;-63
2022/12/15 15:46:16;;;;;;;;;58.75;47.00;;;;;6.06;52.53;98312.88;6284627;27;96932;-63
2022/12/15 15:49:22;;;;;;;;;63.00;50.00;;;;;6.02;52.84;98305.47;6287531;27;96360;-63
2022/12/15 15:52:28;;;;;;;;;62.60;48.60;;;;;5.98;53.08;98315.75;6287396;27;96450;-63
2022/12/15 15:55:34;;;;;;;;;62.00;48.00;;;;;5.97;53.06;98324.81;6287555;27;96281;-63
2022/12/15 15:58:43;;;;;;;;;62.60;48.60;;;;;6.01;53.15;98322.56;6286317;27;96293;-65
2022/12/15 16:01:52;;;;;;;;;62.00;49.00;;;;;5.98;52.94;98317.59;6282026;27;97737;-65
2022/12/15 16:04:55;;;;;;;;;59.33;46.67;;;;;5.75;52.96;98306.47;6287985;27;96416;-62
2022/12/15 16:08:00;;;;;;;;;58.67;45.33;;;;;5.88;53.24;98322.53;6287786;27;96680;-64
2022/12/15 16:11:04;;;;;;;;;59.40;46.80;;;;;5.87;53.33;98327.06;6284147;27;96554;-63
2022/12/15 16:14:12;;;;;;;;;60.60;46.80;;;;;5.81;53.13;98321.69;6287537;27;96797;-63
2022/12/15 16:17:17;;;;;;;;;62.00;46.40;;;;;5.78;53.36;98335.47;6285999;27;97023;-64
2022/12/15 16:20:22;;;;;;;;;61.75;48.50;;;;;5.72;53.67;98309.56;6278622;27;96375;-64
2022/12/15 16:23:28;;;;;;;;;59.50;46.00;;;;;5.67;53.85;98305.63;6268785;27;96873;-63
2022/12/15 16:26:34;;;;;;;;;59.40;46.20;;;;;5.66;53.77;98301.31;6275175;27;97086;-64
2022/12/15 16:29:39;;;;;;;;;58.00;45.80;;;;;5.65;53.93;98298.84;6301734;27;96277;-63
2022/12/15 16:32:42;;;;;;;;;60.25;46.00;;;;;5.66;53.90;98295.16;6283729;27;97263;-65
2022/12/15 16:35:47;;;;;;;;;62.00;48.00;;;;;5.65;53.86;98294.31;6288072;27;96516;-65
2022/12/15 16:38:50;;;;;;;;;54.40;43.80;;;;;5.55;53.99;98293.06;6286020;27;97439;-64
2022/12/15 16:41:55;;;;;;;;;57.25;46.00;;;;;5.57;54.06;98313.22;6278063;27;97424;-63
2022/12/15 16:45:00;;;;;;;;;61.20;48.00;;;;;5.58;54.15;98312.19;6287129;27;96448;-63
2022/12/15 16:48:03;;;;;;;;;61.60;48.00;;;;;5.59;53.96;98302.34;6287985;27;96602;-63
2022/12/15 16:51:09;;;;;;;;;59.25;46.50;;;;;5.58;53.99;98304.19;6288161;27;96426;-63
2022/12/15 16:54:17;;;;;;;;;57.60;45.20;;;;;5.55;54.02;98296.56;6288117;27;96407;-64